Terminal Aerodrome Forecast
Issued by NWS Riverton, WY

Home | Current Version | Previous Version | Text Only | Print | Product List | Glossary On
Versions: 1 2 3 4 5 6 7 8 9 10 11 12 13 14 15 16 17
000
FTUS45 KRIW 220213 AAB
TAFRIW
TAF AMD
KRIW 220213Z 2202/2224 35013KT P6SM SCT040 BKN100
     FM220500 05011KT P6SM VCSH SCT030 BKN050
     FM221800 27010G18KT P6SM BKN050=

USA.gov is the U.S. government's official web portal to all federal, state and local government web resources and services.